Time;durP1;ratioP1;P1;durP2;ratioP2;P2;SDS_P1;SDS_P2;PMS_P1;PMS_P2;Temp;Humidity;BMP_temperature;BMP_pressure;BME280_temperature;BME280_humidity;BME280_pressure;Samples;Min_cycle;Max_cycle;Signal;HPM_P1;HPM_P2
2023/05/13 00:00:13;;;;;;;12.95;11.60;;;12.30;94.40;;;;;;6153697;22;97100;-77
2023/05/13 00:02:39;;;;;;;16.65;12.80;;;12.20;94.40;;;;;;6181104;22;93851;-77
2023/05/13 00:05:05;;;;;;;13.60;11.48;;;12.20;94.80;;;;;;6181869;22;92854;-76
2023/05/13 00:07:31;;;;;;;13.10;11.00;;;12.10;94.80;;;;;;6183155;22;92376;-77
2023/05/13 00:09:56;;;;;;;14.27;12.77;;;12.00;94.60;;;;;;6182213;22;93443;-77
2023/05/13 00:12:22;;;;;;;14.35;12.90;;;11.90;95.40;;;;;;6181983;22;93087;-77
2023/05/13 00:14:48;;;;;;;15.43;13.15;;;11.90;95.50;;;;;;6155280;22;92342;-77
2023/05/13 00:17:13;;;;;;;16.08;13.57;;;11.80;95.70;;;;;;6181021;22;91391;-77
2023/05/13 00:19:39;;;;;;;15.50;13.35;;;11.70;95.80;;;;;;6182488;22;93633;-77
2023/05/13 00:22:05;;;;;;;14.27;12.30;;;11.70;96.00;;;;;;6181348;22;93282;-77
2023/05/13 00:24:31;;;;;;;14.70;12.32;;;11.60;95.70;;;;;;6181593;22;93456;-77
2023/05/13 00:26:57;;;;;;;15.10;12.30;;;11.60;95.60;;;;;;6181465;22;92507;-77
2023/05/13 00:29:23;;;;;;;13.70;11.57;;;11.60;95.50;;;;;;6181709;22;93386;-77
2023/05/13 00:31:49;;;;;;;13.63;12.10;;;11.50;95.60;;;;;;6181918;22;93377;-76
2023/05/13 00:34:15;;;;;;;13.93;11.85;;;11.40;95.50;;;;;;6155447;22;92385;-77
2023/05/13 00:36:41;;;;;;;16.80;12.15;;;11.40;95.50;;;;;;6181637;22;92510;-77
2023/05/13 00:39:06;;;;;;;17.27;13.60;;;11.30;95.50;;;;;;6181663;22;92806;-77
2023/05/13 00:41:32;;;;;;;19.95;14.18;;;11.30;95.60;;;;;;6182056;22;92548;-77
2023/05/13 00:43:58;;;;;;;15.23;13.63;;;11.30;95.90;;;;;;6181749;22;92363;-77
2023/05/13 00:46:24;;;;;;;18.50;13.98;;;11.30;96.00;;;;;;6182672;22;92415;-77
2023/05/13 00:48:50;;;;;;;17.02;14.52;;;11.30;95.90;;;;;;6181883;22;94318;-76
2023/05/13 00:51:17;;;;;;;19.92;15.77;;;11.20;96.00;;;;;;6182948;22;94367;-77
2023/05/13 00:53:43;;;;;;;15.75;13.55;;;11.20;96.10;;;;;;6182896;22;92563;-77
2023/05/13 00:56:12;;;;;;;21.10;16.33;;;11.10;96.00;;;;;;6183063;22;92752;-77
2023/05/13 00:58:38;;;;;;;21.17;16.08;;;11.10;96.30;;;;;;6156499;22;95190;-77
2023/05/13 01:01:16;;;;;;;16.52;14.02;;;11.10;96.30;;;;;;6182552;22;93804;-77
2023/05/13 01:04:23;;;;;;;20.15;15.18;;;11.10;96.40;;;;;;6183053;22;92419;-77
2023/05/13 01:07:01;;;;;;;15.80;13.70;;;11.00;96.20;;;;;;6182851;22;91715;-77
2023/05/13 01:09:37;;;;;;;21.40;14.88;;;11.00;96.30;;;;;;6155895;22;96585;-77
2023/05/13 01:12:17;;;;;;;17.83;14.43;;;11.00;96.40;;;;;;6182762;22;93635;-77
2023/05/13 01:14:58;;;;;;;16.65;14.52;;;11.00;96.60;;;;;;6181969;22;93735;-77
2023/05/13 01:17:30;;;;;;;17.02;14.50;;;11.00;96.60;;;;;;6182870;22;92672;-77
2023/05/13 01:19:59;;;;;;;19.83;13.97;;;10.90;96.50;;;;;;6182853;22;96018;-77
2023/05/13 01:22:25;;;;;;;16.92;13.45;;;10.90;96.30;;;;;;6182237;22;94111;-77
2023/05/13 01:24:50;;;;;;;18.38;13.73;;;10.90;96.20;;;;;;6166491;22;92547;-77
2023/05/13 01:27:16;;;;;;;17.55;13.82;;;10.80;96.40;;;;;;6183380;22;92497;-77
2023/05/13 01:29:43;;;;;;;17.17;13.02;;;10.80;96.20;;;;;;6182880;22;93968;-77
2023/05/13 01:32:10;;;;;;;17.67;13.90;;;10.80;96.30;;;;;;6155721;22;97452;-77
2023/05/13 01:34:37;;;;;;;16.60;12.88;;;10.70;96.50;;;;;;6156202;22;92607;-77
2023/05/13 01:37:03;;;;;;;16.08;13.65;;;10.70;96.20;;;;;;6182537;22;92497;-77
2023/05/13 01:39:30;;;;;;;25.70;14.68;;;10.60;96.20;;;;;;6182078;22;95017;-77
2023/05/13 01:41:57;;;;;;;16.25;12.80;;;10.60;96.20;;;;;;6182397;22;94697;-77
2023/05/13 01:44:23;;;;;;;15.90;12.15;;;10.50;96.20;;;;;;6181601;22;92357;-77
2023/05/13 01:46:52;;;;;;;15.65;13.07;;;10.50;96.10;;;;;;6181279;22;92584;-76
2023/05/13 01:49:18;;;;;;;14.70;12.50;;;10.40;96.10;;;;;;6182694;22;93479;-77
2023/05/13 01:51:43;;;;;;;19.58;14.43;;;10.40;96.10;;;;;;6182367;22;93521;-77
2023/05/13 01:54:09;;;;;;;15.35;13.15;;;10.30;96.30;;;;;;6182901;22;92709;-76
2023/05/13 01:56:35;;;;;;;15.55;12.77;;;10.30;96.30;;;;;;6183206;22;91998;-77
2023/05/13 01:59:00;;;;;;;14.35;11.98;;;10.20;96.30;;;;;;6181050;22;93415;-76
2023/05/13 02:01:26;;;;;;;15.43;13.38;;;10.20;96.20;;;;;;6182924;22;93223;-77
2023/05/13 02:03:52;;;;;;;14.88;12.95;;;10.10;96.50;;;;;;6182181;22;93399;-77
2023/05/13 02:06:18;;;;;;;15.57;12.30;;;10.10;96.50;;;;;;6183219;22;92580;-77
2023/05/13 02:08:44;;;;;;;15.52;11.25;;;10.10;96.50;;;;;;6182509;22;93665;-77
2023/05/13 02:11:10;;;;;;;11.38;10.10;;;10.00;96.50;;;;;;6181996;22;92839;-77
2023/05/13 02:13:35;;;;;;;14.98;11.13;;;10.00;96.30;;;;;;6156966;22;92480;-77
2023/05/13 02:16:02;;;;;;;13.50;10.82;;;9.90;96.40;;;;;;6182137;22;92135;-77
2023/05/13 02:18:27;;;;;;;14.00;11.75;;;9.90;96.40;;;;;;6181909;22;92590;-77
2023/05/13 02:20:53;;;;;;;12.20;10.55;;;9.90;96.60;;;;;;6167108;22;93558;-77
2023/05/13 02:23:19;;;;;;;14.55;10.88;;;9.80;96.50;;;;;;6181550;22;92635;-77
2023/05/13 02:25:44;;;;;;;12.32;10.13;;;9.80;96.60;;;;;;6156496;22;92689;-77
2023/05/13 02:28:10;;;;;;;12.98;10.95;;;9.70;96.60;;;;;;6181508;22;94110;-77
2023/05/13 02:30:36;;;;;;;12.18;10.25;;;9.70;96.50;;;;;;6182439;22;100611;-77
2023/05/13 02:33:01;;;;;;;13.57;11.35;;;9.70;96.60;;;;;;6156235;22;92582;-77
2023/05/13 02:35:30;;;;;;;13.85;11.00;;;9.60;96.60;;;;;;6182105;22;92431;-77
2023/05/13 02:37:56;;;;;;;12.20;10.40;;;9.60;96.50;;;;;;6182154;22;94525;-76
2023/05/13 02:40:22;;;;;;;13.60;11.00;;;9.60;96.60;;;;;;6183439;22;93479;-77
2023/05/13 02:42:48;;;;;;;16.15;11.18;;;9.60;96.60;;;;;;6182276;22;92688;-77
2023/05/13 02:45:14;;;;;;;15.27;10.63;;;9.50;96.50;;;;;;6182712;22;91682;-77
2023/05/13 02:47:39;;;;;;;12.90;10.32;;;9.50;96.50;;;;;;6181826;22;93198;-77
2023/05/13 02:50:06;;;;;;;13.32;11.25;;;9.40;96.50;;;;;;6182165;22;93835;-77
2023/05/13 02:52:37;;;;;;;13.85;12.13;;;9.40;96.80;;;;;;6182829;22;93549;-77
2023/05/13 02:55:04;;;;;;;13.25;11.13;;;9.40;96.80;;;;;;6182533;22;92656;-77
2023/05/13 02:57:30;;;;;;;14.13;11.32;;;9.40;96.80;;;;;;6181666;22;95311;-77
2023/05/13 02:59:56;;;;;;;13.85;12.35;;;9.40;96.90;;;;;;6154900;22;96763;-77
2023/05/13 03:02:21;;;;;;;15.15;12.15;;;9.30;96.90;;;;;;6182982;22;92627;-77
2023/05/13 03:04:47;;;;;;;15.80;11.77;;;9.30;96.90;;;;;;6182615;22;92334;-76
2023/05/13 03:07:12;;;;;;;14.68;11.57;;;9.30;96.90;;;;;;6183447;22;93535;-77
2023/05/13 03:09:41;;;;;;;14.32;11.30;;;9.20;96.80;;;;;;6180974;22;93608;-77
2023/05/13 03:12:07;;;;;;;16.77;12.65;;;9.20;96.90;;;;;;6154104;22;92572;-77
2023/05/13 03:14:35;;;;;;;14.25;12.23;;;9.20;97.20;;;;;;6180661;22;93037;-77
2023/05/13 03:17:04;;;;;;;12.98;11.48;;;9.10;97.00;;;;;;6181779;22;94438;-77
2023/05/13 03:19:30;;;;;;;14.77;11.60;;;9.00;96.90;;;;;;6183087;22;94354;-77
2023/05/13 03:21:56;;;;;;;16.13;12.40;;;9.00;96.90;;;;;;6181497;22;92000;-77
2023/05/13 03:24:21;;;;;;;15.57;12.02;;;9.00;96.90;;;;;;6182483;22;92502;-77
2023/05/13 03:26:48;;;;;;;15.88;11.77;;;9.00;96.90;;;;;;6182062;22;93580;-77
2023/05/13 03:29:13;;;;;;;13.23;11.35;;;8.90;97.20;;;;;;6180900;22;93310;-77
2023/05/13 03:31:39;;;;;;;14.07;11.38;;;8.90;96.90;;;;;;6183503;22;92541;-77
2023/05/13 03:34:05;;;;;;;14.60;11.50;;;8.90;97.10;;;;;;6180826;22;92119;-77
2023/05/13 03:36:31;;;;;;;14.35;12.23;;;8.80;96.90;;;;;;6181487;22;94030;-77
2023/05/13 03:38:57;;;;;;;21.83;12.00;;;8.90;97.00;;;;;;6181611;22;92877;-77
2023/05/13 03:41:22;;;;;;;15.30;11.90;;;8.80;97.00;;;;;;6181294;22;93474;-77
2023/05/13 03:43:48;;;;;;;15.55;12.95;;;8.80;97.10;;;;;;6181170;22;92562;-76
2023/05/13 03:46:14;;;;;;;17.50;11.65;;;8.80;97.00;;;;;;6182730;22;93299;-77
2023/05/13 03:48:39;;;;;;;12.48;10.35;;;8.80;97.10;;;;;;6181976;22;93474;-77
2023/05/13 03:51:05;;;;;;;13.95;11.43;;;8.80;97.00;;;;;;6181550;22;92753;-77
2023/05/13 03:53:31;;;;;;;13.77;10.48;;;8.70;97.10;;;;;;6182002;22;92650;-77
2023/05/13 03:55:57;;;;;;;19.17;11.88;;;8.70;97.00;;;;;;6181875;22;92472;-77
2023/05/13 03:58:22;;;;;;;16.75;12.55;;;8.60;96.90;;;;;;6155786;22;95233;-77
2023/05/13 04:00:48;;;;;;;16.02;12.52;;;8.70;97.10;;;;;;6182241;22;92471;-77
2023/05/13 04:03:17;;;;;;;17.40;12.35;;;8.70;97.20;;;;;;6181569;22;92740;-77
2023/05/13 04:05:47;;;;;;;18.88;13.68;;;8.60;97.00;;;;;;6152901;22;97787;-77
2023/05/13 04:08:13;;;;;;;18.35;14.38;;;8.60;97.00;;;;;;6181492;22;93646;-77
2023/05/13 04:10:39;;;;;;;20.42;14.77;;;8.60;97.00;;;;;;6155708;22;92454;-77
2023/05/13 04:13:06;;;;;;;17.70;14.00;;;8.60;97.10;;;;;;6181430;22;92416;-77
2023/05/13 04:15:31;;;;;;;17.45;14.23;;;8.60;97.30;;;;;;6181749;22;93582;-77
2023/05/13 04:17:57;;;;;;;18.20;14.30;;;8.60;97.40;;;;;;6181590;22;93044;-77
2023/05/13 04:20:23;;;;;;;16.48;12.73;;;8.60;97.30;;;;;;6154560;22;92314;-77
2023/05/13 04:22:52;;;;;;;17.48;12.23;;;8.60;97.20;;;;;;6180702;22;91362;-77
2023/05/13 04:25:18;;;;;;;15.35;11.50;;;8.50;97.30;;;;;;6182219;22;92449;-77
2023/05/13 04:27:46;;;;;;;13.38;11.52;;;8.50;97.30;;;;;;6154792;22;95677;-77
2023/05/13 04:30:12;;;;;;;14.60;11.57;;;8.50;97.40;;;;;;6181793;22;93573;-77
2023/05/13 04:32:38;;;;;;;12.07;10.35;;;8.50;97.40;;;;;;6178684;22;92307;-77
2023/05/13 04:35:05;;;;;;;15.10;12.02;;;8.50;97.30;;;;;;6153768;22;96202;-77
2023/05/13 04:37:31;;;;;;;15.25;11.45;;;8.60;97.70;;;;;;6182308;22;92436;-77
2023/05/13 04:39:56;;;;;;;14.27;11.07;;;8.50;97.80;;;;;;6154712;22;93318;-77
2023/05/13 04:42:22;;;;;;;14.48;11.30;;;8.60;97.70;;;;;;6180987;22;92519;-77
2023/05/13 04:44:48;;;;;;;13.23;10.90;;;8.60;97.80;;;;;;6180846;22;93017;-77
2023/05/13 04:47:13;;;;;;;17.45;12.07;;;8.60;97.80;;;;;;6181521;22;92833;-77
2023/05/13 04:49:39;;;;;;;18.02;13.77;;;8.60;97.80;;;;;;6155568;22;92685;-77
2023/05/13 04:52:05;;;;;;;20.33;14.13;;;8.60;97.70;;;;;;6181642;22;92553;-77
2023/05/13 04:54:32;;;;;;;20.08;15.45;;;8.70;98.10;;;;;;6180348;22;94976;-77
2023/05/13 04:56:58;;;;;;;17.52;13.45;;;8.70;98.10;;;;;;6180791;22;93547;-77
2023/05/13 04:59:23;;;;;;;21.58;15.88;;;8.80;98.00;;;;;;6181201;22;92475;-77
2023/05/13 05:01:49;;;;;;;19.23;14.50;;;8.90;98.00;;;;;;6166378;22;92388;-76
2023/05/13 05:04:15;;;;;;;19.98;15.20;;;8.90;97.90;;;;;;6179752;22;93528;-77
2023/05/13 05:06:40;;;;;;;21.35;16.23;;;9.00;97.90;;;;;;6180930;22;93728;-77
2023/05/13 05:09:06;;;;;;;20.63;16.00;;;9.10;98.00;;;;;;6181408;22;92856;-77
2023/05/13 05:11:32;;;;;;;22.27;16.55;;;9.10;98.00;;;;;;6181568;22;91608;-77
2023/05/13 05:13:57;;;;;;;26.92;18.35;;;9.20;98.10;;;;;;6181252;22;92810;-77
2023/05/13 05:16:23;;;;;;;29.92;20.85;;;9.30;98.20;;;;;;6155358;22;96615;-77
2023/05/13 05:18:49;;;;;;;28.00;21.20;;;9.40;98.30;;;;;;6180979;22;94184;-77
2023/05/13 05:21:17;;;;;;;27.38;21.40;;;9.50;98.30;;;;;;6153868;22;92545;-77
2023/05/13 05:23:42;;;;;;;32.72;23.13;;;9.60;98.40;;;;;;6180276;22;93795;-77
2023/05/13 05:26:08;;;;;;;31.77;23.65;;;9.70;98.40;;;;;;6153756;22;94068;-77
2023/05/13 05:28:34;;;;;;;31.05;23.05;;;9.80;98.40;;;;;;6181446;22;92803;-77
2023/05/13 05:31:00;;;;;;;33.58;23.48;;;10.00;98.50;;;;;;6180584;22;92642;-77
2023/05/13 05:33:26;;;;;;;29.58;23.10;;;10.10;98.50;;;;;;6181608;22;93532;-77
2023/05/13 05:35:52;;;;;;;28.63;21.95;;;10.20;98.50;;;;;;6182614;22;93201;-77
2023/05/13 05:38:18;;;;;;;36.53;23.85;;;10.30;98.40;;;;;;6181925;22;92556;-77
2023/05/13 05:40:45;;;;;;;30.40;23.42;;;10.40;98.40;;;;;;6183579;22;92279;-77
2023/05/13 05:43:11;;;;;;;31.33;22.80;;;10.50;98.20;;;;;;6154864;22;96476;-77
2023/05/13 05:45:37;;;;;;;38.50;24.13;;;10.70;98.10;;;;;;6182135;22;93005;-77
2023/05/13 05:48:04;;;;;;;27.08;22.35;;;10.80;98.10;;;;;;6182211;22;92655;-77
2023/05/13 05:50:30;;;;;;;28.73;22.17;;;10.90;97.90;;;;;;6140817;22;92654;-77
2023/05/13 05:52:56;;;;;;;27.35;21.02;;;11.10;97.70;;;;;;6154790;22;95364;-77
2023/05/13 05:55:22;;;;;;;32.75;21.50;;;11.20;97.60;;;;;;6182737;22;92650;-77
2023/05/13 05:57:48;;;;;;;24.92;19.85;;;11.30;97.20;;;;;;6185068;22;92345;-80
2023/05/13 06:00:14;;;;;;;26.90;21.20;;;11.40;96.80;;;;;;6186422;22;91934;-79
2023/05/13 06:02:40;;;;;;;23.90;19.13;;;11.50;96.40;;;;;;6182809;22;93096;-79
2023/05/13 06:05:06;;;;;;;24.60;19.20;;;11.60;96.10;;;;;;6182619;22;92590;-78
2023/05/13 06:07:32;;;;;;;25.90;20.23;;;11.70;96.00;;;;;;6189031;22;93463;-79
2023/05/13 06:09:58;;;;;;;26.90;19.98;;;11.80;96.00;;;;;;6183500;22;92161;-78
2023/05/13 06:12:23;;;;;;;22.63;18.58;;;11.90;95.80;;;;;;6183382;22;92288;-79
2023/05/13 06:14:49;;;;;;;23.63;17.83;;;12.00;95.10;;;;;;6156557;22;96138;-79
2023/05/13 06:17:15;;;;;;;20.40;17.10;;;12.00;94.60;;;;;;6184490;22;92388;-78
2023/05/13 06:19:46;;;;;;;26.60;17.45;;;12.10;94.40;;;;;;6157319;22;92495;-78
2023/05/13 06:22:13;;;;;;;22.65;17.85;;;12.20;94.00;;;;;;6180080;22;97601;-78
2023/05/13 06:24:41;;;;;;;25.70;17.08;;;12.40;94.40;;;;;;6178897;22;93310;-78
2023/05/13 06:27:07;;;;;;;21.80;16.38;;;12.40;94.20;;;;;;6178253;22;92209;-78
2023/05/13 06:29:32;;;;;;;26.92;18.15;;;12.50;93.90;;;;;;6178614;22;92207;-78
2023/05/13 06:31:58;;;;;;;23.23;16.80;;;12.70;93.80;;;;;;6180765;22;94893;-78
2023/05/13 06:34:24;;;;;;;20.35;15.68;;;12.80;93.50;;;;;;6182831;22;94507;-78
2023/05/13 06:36:49;;;;;;;21.60;15.73;;;12.80;93.20;;;;;;6182355;22;92525;-77
2023/05/13 06:39:15;;;;;;;23.00;17.20;;;12.90;93.10;;;;;;6155327;22;92492;-78
2023/05/13 06:41:41;;;;;;;20.42;16.10;;;13.00;93.20;;;;;;6154188;22;96806;-77
2023/05/13 06:44:07;;;;;;;26.27;15.60;;;13.10;93.00;;;;;;6181895;22;93154;-78
2023/05/13 06:46:33;;;;;;;23.35;15.75;;;13.20;92.50;;;;;;6186073;22;92529;-78
2023/05/13 06:48:59;;;;;;;21.25;15.95;;;13.30;92.60;;;;;;6161137;22;91759;-77
2023/05/13 06:51:26;;;;;;;18.65;15.20;;;13.40;92.60;;;;;;6183327;22;94320;-77
2023/05/13 06:53:53;;;;;;;23.33;16.77;;;13.60;92.00;;;;;;6183061;22;92827;-77
2023/05/13 06:56:21;;;;;;;20.52;15.07;;;13.70;92.60;;;;;;6182369;22;93336;-77
2023/05/13 06:58:48;;;;;;;20.80;13.95;;;13.80;91.70;;;;;;6182155;22;92410;-76
2023/05/13 07:01:14;;;;;;;20.20;15.30;;;13.90;91.60;;;;;;6182362;22;93151;-76
2023/05/13 07:03:44;;;;;;;21.42;16.25;;;14.10;91.60;;;;;;6199285;22;93634;-80
2023/05/13 07:06:10;;;;;;;19.17;15.60;;;14.20;92.10;;;;;;6170015;22;92263;-80
2023/05/13 07:08:36;;;;;;;22.60;15.50;;;14.30;92.10;;;;;;6193245;22;92056;-79
2023/05/13 07:11:02;;;;;;;20.60;14.55;;;14.50;92.10;;;;;;6166840;22;95323;-82
2023/05/13 07:13:28;;;;;;;20.70;14.73;;;14.60;90.80;;;;;;6168969;22;95929;-81
2023/05/13 07:15:54;;;;;;;21.13;14.45;;;14.70;90.20;;;;;;6168888;22;92589;-81
2023/05/13 07:18:20;;;;;;;17.33;13.63;;;14.80;90.20;;;;;;6168310;22;92457;-80
2023/05/13 07:20:46;;;;;;;17.23;13.60;;;14.90;89.70;;;;;;6193896;22;94426;-80
2023/05/13 07:23:11;;;;;;;20.75;13.70;;;15.10;88.90;;;;;;6163439;22;96621;-81
2023/05/13 07:25:37;;;;;;;19.67;14.18;;;15.20;89.20;;;;;;6165288;22;92562;-81
2023/05/13 07:28:03;;;;;;;16.15;12.23;;;15.30;89.20;;;;;;6156715;22;92488;-81
2023/05/13 07:30:29;;;;;;;15.30;13.23;;;15.50;86.10;;;;;;6153292;22;94626;-79
2023/05/13 07:32:55;;;;;;;14.23;12.27;;;15.60;86.60;;;;;;6179789;22;92915;-78
2023/05/13 07:35:21;;;;;;;14.10;11.50;;;15.70;83.90;;;;;;6154426;22;101545;-78
2023/05/13 07:37:47;;;;;;;16.02;11.95;;;15.80;84.90;;;;;;6182173;22;91341;-78
2023/05/13 07:40:12;;;;;;;15.93;12.15;;;16.00;83.30;;;;;;6155585;22;96425;-78
2023/05/13 07:42:39;;;;;;;15.60;11.43;;;16.10;80.80;;;;;;6181448;22;93247;-78
2023/05/13 07:45:06;;;;;;;18.50;12.00;;;16.20;79.60;;;;;;6153988;22;94030;-78
2023/05/13 07:47:32;;;;;;;15.20;11.63;;;16.30;81.30;;;;;;6180943;22;92658;-77
2023/05/13 07:49:58;;;;;;;17.08;11.75;;;16.50;80.60;;;;;;6167329;22;93313;-80
2023/05/13 07:52:25;;;;;;;16.80;11.98;;;16.60;80.50;;;;;;6180477;22;93375;-81
2023/05/13 07:54:53;;;;;;;17.55;11.88;;;16.70;81.00;;;;;;6182381;22;93202;-81
2023/05/13 07:57:19;;;;;;;14.20;10.27;;;16.90;78.40;;;;;;6154366;22;92671;-81
2023/05/13 07:59:44;;;;;;;14.07;10.43;;;17.00;78.50;;;;;;6181560;22;93297;-80
2023/05/13 08:02:10;;;;;;;15.95;10.07;;;17.10;79.10;;;;;;6182906;22;93163;-80
2023/05/13 08:04:36;;;;;;;15.90;10.13;;;17.20;78.60;;;;;;6183195;22;92310;-80
2023/05/13 08:07:02;;;;;;;17.55;10.82;;;17.30;79.00;;;;;;6155128;22;92685;-81
2023/05/13 08:09:27;;;;;;;21.35;10.35;;;17.50;78.30;;;;;;6152875;22;96922;-76
2023/05/13 08:11:53;;;;;;;14.18;9.60;;;17.60;77.50;;;;;;6181809;22;94395;-84
2023/05/13 08:14:19;;;;;;;13.95;9.98;;;17.80;76.20;;;;;;6155876;22;92598;-79
2023/05/13 08:16:45;;;;;;;11.27;9.98;;;17.90;76.30;;;;;;6182921;22;92784;-78
2023/05/13 08:19:13;;;;;;;15.25;10.50;;;18.00;78.90;;;;;;6181746;22;93580;-81
2023/05/13 08:21:38;;;;;;;15.23;10.27;;;18.10;75.50;;;;;;6181660;22;93645;-79
2023/05/13 08:24:05;;;;;;;12.95;9.80;;;18.30;76.00;;;;;;6154836;22;92675;-80
2023/05/13 08:26:31;;;;;;;13.70;9.95;;;18.40;78.10;;;;;;6155810;22;91789;-80
2023/05/13 08:28:57;;;;;;;11.82;9.10;;;18.50;74.90;;;;;;6155268;22;96650;-79
2023/05/13 08:31:24;;;;;;;11.77;9.75;;;18.60;75.50;;;;;;6183419;22;92878;-79
2023/05/13 08:33:50;;;;;;;13.02;9.52;;;18.80;72.40;;;;;;6155349;22;93329;-80
2023/05/13 08:36:16;;;;;;;12.73;9.38;;;18.90;70.80;;;;;;6155455;22;92743;-81
2023/05/13 08:38:42;;;;;;;14.32;9.23;;;19.00;72.50;;;;;;6181616;22;92987;-79
2023/05/13 08:41:11;;;;;;;13.55;9.63;;;19.00;68.90;;;;;;6182205;22;93753;-79
2023/05/13 08:43:38;;;;;;;11.10;8.30;;;19.20;71.80;;;;;;6181405;22;92121;-79
2023/05/13 08:46:08;;;;;;;12.18;9.10;;;19.40;71.50;;;;;;6180446;22;92484;-80
2023/05/13 08:48:34;;;;;;;12.45;9.07;;;19.60;69.80;;;;;;6154945;22;96662;-79
2023/05/13 08:51:01;;;;;;;11.07;8.50;;;19.70;71.80;;;;;;6155888;22;96017;-78
2023/05/13 08:53:27;;;;;;;12.23;8.55;;;19.80;68.50;;;;;;6182875;22;92548;-78
2023/05/13 08:55:53;;;;;;;12.60;8.20;;;20.00;69.50;;;;;;6155280;22;92532;-78
2023/05/13 08:58:19;;;;;;;15.48;8.65;;;20.00;66.30;;;;;;6182418;22;93475;-77
2023/05/13 09:00:47;;;;;;;13.30;8.15;;;20.10;66.50;;;;;;6179529;22;96945;-76
2023/05/13 09:03:13;;;;;;;18.17;8.30;;;20.20;67.50;;;;;;6182440;22;92649;-78
2023/05/13 09:05:40;;;;;;;12.77;7.80;;;20.30;65.80;;;;;;6181675;22;92494;-78
2023/05/13 09:08:08;;;;;;;8.95;7.95;;;20.40;70.30;;;;;;6155284;22;95353;-78
2023/05/13 09:10:35;;;;;;;8.02;6.50;;;20.70;68.00;;;;;;6157188;22;94023;-79
2023/05/13 09:13:01;;;;;;;11.68;7.80;;;20.90;68.00;;;;;;6156316;22;92669;-78
2023/05/13 09:15:27;;;;;;;9.40;7.18;;;21.30;65.20;;;;;;6156738;22;91759;-78
2023/05/13 09:17:57;;;;;;;13.25;6.97;;;21.60;65.00;;;;;;6155610;22;96657;-79
2023/05/13 09:20:26;;;;;;;9.30;6.88;;;21.70;63.90;;;;;;6155973;22;96977;-79
2023/05/13 09:23:04;;;;;;;10.35;6.82;;;21.80;61.70;;;;;;6182827;22;93326;-79
2023/05/13 09:25:31;;;;;;;9.68;6.32;;;21.90;65.70;;;;;;6157717;22;92670;-79
2023/05/13 09:27:59;;;;;;;11.82;6.82;;;22.10;65.00;;;;;;6183387;22;93818;-78
2023/05/13 09:30:27;;;;;;;9.18;5.82;;;22.30;62.00;;;;;;6182995;22;93816;-76
2023/05/13 09:33:18;;;;;;;10.20;6.03;;;22.60;61.20;;;;;;6183552;22;92779;-80
2023/05/13 09:35:52;;;;;;;14.85;6.72;;;22.80;63.40;;;;;;6183639;22;92534;-80
2023/05/13 09:38:20;;;;;;;8.57;4.95;;;23.20;62.50;;;;;;6183467;22;93503;-84
2023/05/13 09:40:57;;;;;;;14.98;6.32;;;23.40;63.00;;;;;;6184928;22;93170;-83
2023/05/13 09:43:25;;;;;;;10.82;6.00;;;23.50;58.00;;;;;;6182073;22;92745;-81
2023/05/13 09:46:00;;;;;;;7.57;5.80;;;23.40;57.20;;;;;;6156632;22;92564;-79
2023/05/13 09:48:28;;;;;;;9.23;5.47;;;23.60;61.00;;;;;;6182119;22;93852;-79
2023/05/13 09:50:56;;;;;;;7.70;5.35;;;23.80;57.10;;;;;;6183351;22;94311;-78
2023/05/13 09:53:22;;;;;;;7.65;5.00;;;24.00;57.40;;;;;;6183938;22;92611;-78
2023/05/13 09:55:50;;;;;;;6.10;5.47;;;24.10;58.80;;;;;;6183785;22;92545;-78
2023/05/13 09:58:18;;;;;;;7.68;4.95;;;24.40;55.90;;;;;;6183456;22;93583;-78
2023/05/13 10:00:46;;;;;;;11.13;6.03;;;24.60;56.60;;;;;;6183355;22;93752;-79
2023/05/13 10:03:12;;;;;;;12.60;5.72;;;24.90;56.60;;;;;;6183958;22;91976;-81
2023/05/13 10:05:40;;;;;;;5.75;4.93;;;25.10;53.10;;;;;;6184147;22;91726;-81
2023/05/13 10:08:09;;;;;;;7.30;4.93;;;25.20;56.50;;;;;;6183081;22;93765;-78
2023/05/13 10:10:35;;;;;;;9.43;4.97;;;25.50;55.20;;;;;;6155972;22;96368;-78
2023/05/13 10:13:14;;;;;;;5.82;4.55;;;25.60;56.20;;;;;;6182026;22;93510;-78
2023/05/13 10:15:47;;;;;;;10.55;3.95;;;25.70;53.90;;;;;;6169873;22;92286;-78
2023/05/13 10:18:15;;;;;;;6.05;4.03;;;25.80;53.40;;;;;;6183069;22;93955;-77
2023/05/13 10:20:41;;;;;;;8.68;3.78;;;26.00;54.70;;;;;;6182238;22;93190;-77
2023/05/13 10:23:07;;;;;;;5.32;3.97;;;26.30;54.90;;;;;;6183387;22;92413;-77
2023/05/13 10:25:33;;;;;;;8.98;5.05;;;26.60;54.10;;;;;;6184110;22;92495;-78
2023/05/13 10:28:01;;;;;;;9.27;4.18;;;26.50;52.70;;;;;;6164982;22;92814;-77
2023/05/13 10:30:30;;;;;;;7.63;5.18;;;26.60;50.60;;;;;;6182007;22;93254;-77
2023/05/13 10:32:57;;;;;;;31.60;7.15;;;26.80;50.10;;;;;;6183443;22;92185;-77
2023/05/13 10:35:28;;;;;;;8.77;4.38;;;26.70;51.20;;;;;;6183107;22;92484;-77
2023/05/13 10:38:20;;;;;;;7.80;4.28;;;26.60;52.80;;;;;;6155480;22;96744;-77
2023/05/13 10:41:21;;;;;;;7.22;4.40;;;26.70;54.00;;;;;;6184018;22;92646;-77
2023/05/13 10:43:58;;;;;;;6.05;4.43;;;26.70;46.30;;;;;;6123440;22;92592;-76
2023/05/13 10:46:24;;;;;;;9.70;4.70;;;26.50;49.10;;;;;;6183710;22;92547;-77
2023/05/13 10:48:55;;;;;;;11.05;3.72;;;26.60;49.80;;;;;;6181983;22;93039;-77
2023/05/13 10:51:23;;;;;;;6.05;4.07;;;26.80;50.90;;;;;;6182581;22;93034;-77
2023/05/13 10:53:54;;;;;;;6.78;4.00;;;27.00;48.50;;;;;;6182626;22;92404;-76
2023/05/13 10:56:22;;;;;;;7.25;4.03;;;27.00;49.30;;;;;;6183164;22;91946;-77
2023/05/13 10:58:58;;;;;;;392.42;55.83;;;27.10;48.50;;;;;;6181841;22;92210;-76
2023/05/13 11:01:34;;;;;;;24.40;7.00;;;27.40;50.40;;;;;;6182807;22;93425;-77
2023/05/13 11:04:04;;;;;;;9.27;4.40;;;27.70;46.20;;;;;;6178424;22;93488;-78
2023/05/13 11:06:29;;;;;;;5.72;4.07;;;27.60;47.80;;;;;;6183017;22;92798;-78
2023/05/13 11:08:55;;;;;;;5.15;3.55;;;27.60;46.30;;;;;;6182237;22;94183;-77
2023/05/13 11:11:23;;;;;;;7.03;3.80;;;27.80;48.70;;;;;;6180167;22;96236;-78
2023/05/13 11:14:09;;;;;;;6.88;4.03;;;28.00;47.20;;;;;;6182076;22;92525;-77
2023/05/13 11:16:36;;;;;;;6.57;3.67;;;28.10;49.90;;;;;;6181880;22;92696;-78
2023/05/13 11:19:03;;;;;;;7.20;3.90;;;28.20;47.30;;;;;;6181726;22;93682;-76
2023/05/13 11:21:30;;;;;;;33.15;11.35;;;28.30;45.70;;;;;;6155270;22;95804;-78
2023/05/13 11:24:05;;;;;;;36.33;9.40;;;28.40;48.40;;;;;;6181804;22;92534;-76
2023/05/13 11:26:52;;;;;;;8.73;3.92;;;28.40;46.60;;;;;;6182359;22;92413;-76
2023/05/13 11:29:35;;;;;;;7.40;3.60;;;28.50;48.80;;;;;;6181574;22;93406;-76
2023/05/13 11:32:05;;;;;;;13.43;4.90;;;28.70;47.50;;;;;;6181470;22;93370;-76
2023/05/13 11:34:33;;;;;;;5.93;3.58;;;28.90;45.70;;;;;;6156602;22;92623;-76
2023/05/13 11:37:09;;;;;;;9.45;4.15;;;28.80;43.10;;;;;;6182208;22;92514;-76
2023/05/13 11:39:38;;;;;;;9.75;3.28;;;28.60;45.40;;;;;;6182529;22;93642;-76
2023/05/13 11:42:08;;;;;;;7.68;3.55;;;28.70;46.00;;;;;;6182619;22;92893;-76
2023/05/13 11:44:35;;;;;;;7.78;2.90;;;29.20;46.00;;;;;;6182383;22;92466;-77
2023/05/13 11:47:06;;;;;;;7.78;3.00;;;29.40;44.90;;;;;;6182683;22;91595;-77
2023/05/13 11:49:42;;;;;;;4.82;2.83;;;29.60;46.20;;;;;;6182392;22;93478;-78
2023/05/13 11:52:18;;;;;;;4.63;3.20;;;29.80;44.80;;;;;;6154889;22;96533;-78
2023/05/13 11:54:50;;;;;;;9.27;3.83;;;30.00;43.50;;;;;;6181708;22;93399;-78
2023/05/13 11:57:19;;;;;;;4.07;3.22;;;29.80;42.00;;;;;;6155338;22;92332;-79
2023/05/13 11:59:59;;;;;;;4.90;3.75;;;29.40;43.60;;;;;;6154670;22;95440;-80
2023/05/13 12:02:32;;;;;;;3.92;3.17;;;29.20;41.10;;;;;;6154573;22;96476;-76
2023/05/13 12:05:05;;;;;;;8.32;3.08;;;28.90;42.50;;;;;;6155828;22;92416;-78
2023/05/13 12:07:32;;;;;;;6.00;3.63;;;28.90;41.40;;;;;;6156717;22;92514;-77
2023/05/13 12:10:00;;;;;;;4.75;3.00;;;28.90;44.10;;;;;;6182228;22;93866;-76
2023/05/13 12:12:27;;;;;;;6.45;2.60;;;29.50;44.70;;;;;;6181629;22;94124;-77
2023/05/13 12:14:55;;;;;;;8.93;3.05;;;30.00;43.40;;;;;;6182582;22;92570;-79
2023/05/13 12:17:21;;;;;;;5.00;2.90;;;30.00;41.00;;;;;;6181785;22;92505;-75
2023/05/13 12:20:26;;;;;;;4.40;2.65;;;30.10;40.90;;;;;;6180448;22;94572;-77
2023/05/13 12:22:55;;;;;;;5.47;2.60;;;30.00;44.80;;;;;;6181264;22;94114;-78
2023/05/13 12:25:59;;;;;;;6.35;3.30;;;29.40;45.10;;;;;;6156358;22;92892;-78
2023/05/13 12:28:25;;;;;;;2.90;2.60;;;29.00;43.90;;;;;;6155215;22;92780;-78
2023/05/13 12:30:58;;;;;;;4.60;2.80;;;29.40;43.10;;;;;;6181942;22;100321;-78
2023/05/13 12:33:24;;;;;;;7.40;2.40;;;29.80;41.30;;;;;;6181546;22;93045;-78
2023/05/13 12:36:14;;;;;;;8.80;3.03;;;30.00;42.20;;;;;;6182201;22;92723;-77
2023/05/13 12:38:56;;;;;;;8.68;3.38;;;29.50;39.80;;;;;;6160273;22;91957;-76